Time;durP1;ratioP1;P1;durP2;ratioP2;P2;SDS_P1;SDS_P2;PMS_P1;PMS_P2;Temp;Humidity;BMP_temperature;BMP_pressure;BME280_temperature;BME280_humidity;BME280_pressure;Samples;Min_cycle;Max_cycle;Signal;HPM_P1;HPM_P2
2022/07/21 00:00:40;;;;;;;9.63;4.18;;;;;;;21.07;71.54;101542.94;2017042;29;20074;-68
2022/07/21 00:01:44;;;;;;;10.65;4.15;;;;;;;21.07;71.47;101539.38;2017400;29;20168;-68
2022/07/21 00:02:46;;;;;;;6.75;4.03;;;;;;;21.08;71.78;101532.94;2017296;29;21155;-68
2022/07/21 00:03:50;;;;;;;7.20;3.72;;;;;;;21.07;70.89;101531.19;2017059;29;20052;-68
2022/07/21 00:04:53;;;;;;;8.65;4.30;;;;;;;21.04;71.14;101526.78;2015966;29;20063;-68
2022/07/21 00:05:54;;;;;;;5.95;3.58;;;;;;;21.04;71.10;101524.06;2016481;29;20054;-68
2022/07/21 00:06:56;;;;;;;12.18;4.32;;;;;;;21.04;71.22;101526.78;2016907;29;20125;-68
2022/07/21 00:08:01;;;;;;;10.93;4.30;;;;;;;21.05;71.66;101527.66;2017297;29;20041;-67
2022/07/21 00:09:03;;;;;;;8.60;4.10;;;;;;;21.01;71.96;101521.50;2016608;29;20161;-68
2022/07/21 00:10:06;;;;;;;7.47;3.70;;;;;;;21.04;72.12;101517.75;2017133;29;20092;-67
2022/07/21 00:11:08;;;;;;;11.32;4.05;;;;;;;21.03;71.51;101515.97;2016901;29;20165;-67
2022/07/21 00:12:10;;;;;;;8.82;4.32;;;;;;;21.03;72.92;101529.59;2017242;29;20954;-67
2022/07/21 00:13:12;;;;;;;8.73;3.90;;;;;;;21.01;72.02;101526.09;2016071;29;20119;-67
2022/07/21 00:14:14;;;;;;;11.77;3.88;;;;;;;20.98;72.38;101528.03;2016510;29;20152;-67
2022/07/21 00:15:21;;;;;;;9.05;3.95;;;;;;;21.01;72.80;101531.53;2017001;29;20037;-67
2022/07/21 00:16:23;;;;;;;5.57;4.00;;;;;;;21.00;72.05;101527.94;2017544;29;20871;-67
2022/07/21 00:17:25;;;;;;;8.18;3.60;;;;;;;21.00;72.78;101525.22;2016076;29;20088;-67
2022/07/21 00:18:30;;;;;;;7.47;3.67;;;;;;;21.04;72.36;101531.38;2016991;29;20089;-67
2022/07/21 00:19:31;;;;;;;9.25;4.30;;;;;;;21.00;72.68;101527.03;2016741;29;20276;-66
2022/07/21 00:20:34;;;;;;;7.45;4.63;;;;;;;21.03;72.75;101526.88;2017228;29;20038;-67
2022/07/21 00:21:36;;;;;;;8.68;4.13;;;;;;;21.04;72.13;101525.91;2016993;29;20151;-67
2022/07/21 00:22:39;;;;;;;7.43;4.15;;;;;;;21.04;72.09;101520.47;2016942;29;20237;-67
2022/07/21 00:23:42;;;;;;;7.20;4.40;;;;;;;21.04;71.87;101526.78;2016369;29;20049;-68
2022/07/21 00:24:44;;;;;;;6.53;4.00;;;;;;;21.03;72.03;101525.06;2016313;29;20236;-67
2022/07/21 00:25:46;;;;;;;7.18;4.40;;;;;;;21.04;71.56;101520.47;2017027;29;20306;-67
2022/07/21 00:26:53;;;;;;;7.20;4.35;;;;;;;21.05;72.21;101519.50;2016931;29;20882;-68
2022/07/21 00:27:55;;;;;;;6.82;4.00;;;;;;;21.06;72.21;101523.97;2016567;29;20100;-67
2022/07/21 00:28:59;;;;;;;10.00;4.53;;;;;;;21.08;72.44;101532.94;2017099;29;20045;-68
2022/07/21 00:30:04;;;;;;;9.82;4.75;;;;;;;21.07;72.37;101532.06;2016791;29;20421;-68
2022/07/21 00:31:06;;;;;;;9.10;4.45;;;;;;;21.09;72.55;101532.84;2016859;29;20045;-68
2022/07/21 00:32:08;;;;;;;10.68;4.82;;;;;;;21.11;71.70;101541.81;2016644;29;20878;-67
2022/07/21 00:33:10;;;;;;;8.35;5.05;;;;;;;21.10;72.38;101548.22;2016626;29;20089;-67
2022/07/21 00:34:15;;;;;;;7.72;4.22;;;;;;;21.12;71.91;101553.56;2017058;29;20168;-67
2022/07/21 00:35:19;;;;;;;9.10;5.05;;;;;;;21.13;72.98;101567.09;2016993;29;20097;-68
2022/07/21 00:36:21;;;;;;;9.40;5.18;;;;;;;21.14;72.71;101587.06;2016713;29;20911;-67
2022/07/21 00:37:23;;;;;;;8.68;4.93;;;;;;;21.12;73.68;101605.31;2016598;29;20125;-67
2022/07/21 00:38:25;;;;;;;9.63;4.70;;;;;;;21.16;72.31;101636.88;2016720;29;20552;-67
2022/07/21 00:39:28;;;;;;;12.13;5.20;;;;;;;21.14;72.63;101682.38;2016946;29;20125;-67
2022/07/21 00:40:30;;;;;;;11.23;5.45;;;;;;;21.16;73.18;101727.59;2017021;29;20895;-68
2022/07/21 00:41:34;;;;;;;10.65;5.78;;;;;;;21.08;73.55;101767.97;2016786;29;20093;-72
2022/07/21 00:42:36;;;;;;;9.60;5.97;;;;;;;20.96;74.01;101791.31;2016589;29;20188;-73
2022/07/21 00:43:38;;;;;;;15.15;6.25;;;;;;;20.92;74.94;101799.72;2016885;29;20085;-72
2022/07/21 00:44:40;;;;;;;12.98;6.00;;;;;;;20.89;74.44;101806.22;2015996;29;20049;-72
2022/07/21 00:45:42;;;;;;;12.05;6.35;;;;;;;20.89;74.11;101810.75;2016405;29;20958;-72
2022/07/21 00:46:45;;;;;;;18.33;6.03;;;;;;;20.92;73.75;101814.19;2016261;29;21009;-72
2022/07/21 00:47:47;;;;;;;18.70;6.20;;;;;;;20.93;73.69;101829.59;2017434;29;20049;-72
2022/07/21 00:48:49;;;;;;;17.02;5.75;;;;;;;20.98;73.94;101838.41;2016804;29;20049;-76
2022/07/21 00:49:51;;;;;;;24.77;7.30;;;;;;;20.83;78.12;101821.97;2016864;29;20041;-63
2022/07/21 00:50:53;;;;;;;22.90;8.20;;;;;;;20.47;81.78;101801.09;2016377;29;20053;-62
2022/07/21 00:51:55;;;;;;;27.30;9.15;;;;;;;20.08;87.68;101751.38;2016739;29;20929;-61
2022/07/21 00:52:57;;;;;;;25.40;8.95;;;;;;;19.88;89.68;101702.56;2016866;29;20066;-61
2022/07/21 00:53:59;;;;;;;32.78;9.23;;;;;;;19.63;90.96;101701.00;2016868;29;20975;-61
2022/07/21 00:55:03;;;;;;;19.35;9.70;;;;;;;19.46;92.73;101707.28;2016711;29;20157;-61
2022/07/21 00:56:05;;;;;;;28.35;9.65;;;;;;;19.33;95.88;101734.13;2008425;29;20189;-62
2022/07/21 00:57:08;;;;;;;19.38;9.73;;;;;;;19.10;96.66;101751.50;2001408;29;20996;-62
2022/07/21 00:58:11;;;;;;;16.23;9.70;;;;;;;19.00;98.37;101769.13;2015928;29;20164;-63
2022/07/21 00:59:14;;;;;;;20.13;9.50;;;;;;;18.93;98.74;101779.38;2016414;29;20077;-63
2022/07/21 01:00:21;;;;;;;28.80;10.15;;;;;;;18.85;99.84;101777.00;2016762;29;20101;-63
2022/07/21 01:01:23;;;;;;;15.50;9.55;;;;;;;18.79;99.96;101771.84;2016126;29;20045;-63
2022/07/21 01:02:26;;;;;;;19.40;10.63;;;;;;;18.72;100.00;101745.94;2016206;29;20054;-62
2022/07/21 01:03:28;;;;;;;30.23;11.60;;;;;;;18.67;100.00;101737.97;2016640;29;20045;-62
2022/07/21 01:04:30;;;;;;;23.70;11.52;;;;;;;18.62;100.00;101731.00;2016782;29;20097;-62
2022/07/21 01:05:33;;;;;;;18.08;10.57;;;;;;;18.56;100.00;101725.84;2016362;29;20476;-63
2022/07/21 01:06:35;;;;;;;17.90;9.85;;;;;;;18.52;100.00;101708.84;2016982;29;20184;-62
2022/07/21 01:07:37;;;;;;;16.25;10.32;;;;;;;18.47;100.00;101689.16;2016208;29;21009;-63
2022/07/21 01:08:40;;;;;;;17.92;10.50;;;;;;;18.43;100.00;101676.66;2016298;29;20088;-63
2022/07/21 01:09:42;;;;;;;16.58;9.77;;;;;;;18.40;100.00;101660.56;2016833;29;20049;-63
2022/07/21 01:10:46;;;;;;;18.00;10.00;;;;;;;18.33;100.00;101656.34;2016600;29;20942;-63
2022/07/21 01:11:48;;;;;;;15.30;8.73;;;;;;;18.25;100.00;101648.53;2016609;29;21030;-63
2022/07/21 01:12:50;;;;;;;16.33;9.65;;;;;;;18.23;100.00;101648.63;2016056;29;20310;-64
2022/07/21 01:13:55;;;;;;;18.50;9.10;;;;;;;18.19;100.00;101649.69;2016089;29;20229;-63
2022/07/21 01:14:57;;;;;;;19.45;9.18;;;;;;;18.13;100.00;101641.84;2016081;29;20155;-63
2022/07/21 01:15:59;;;;;;;18.42;8.45;;;;;;;18.09;100.00;101632.97;2008333;29;20176;-63
2022/07/21 01:17:03;;;;;;;11.95;7.20;;;;;;;18.04;100.00;101620.56;2016325;29;20053;-64
2022/07/21 01:18:05;;;;;;;10.27;6.95;;;;;;;17.99;100.00;101600.91;2016628;29;20114;-63
2022/07/21 01:19:07;;;;;;;15.15;7.38;;;;;;;17.97;100.00;101586.56;2022964;29;20096;-64
2022/07/21 01:20:14;;;;;;;13.98;7.30;;;;;;;17.93;100.00;101586.69;2023643;29;20095;-64
2022/07/21 01:21:33;;;;;;;17.52;7.85;;;;;;;17.89;100.00;101579.63;2016968;29;20150;-65
2022/07/21 01:22:39;;;;;;;14.02;7.35;;;;;;;17.88;100.00;101575.16;2024170;29;20049;-65
2022/07/21 01:23:41;;;;;;;18.35;8.80;;;;;;;17.86;100.00;101558.09;2021846;29;20147;-65
2022/07/21 01:24:43;;;;;;;17.55;8.68;;;;;;;17.86;100.00;101557.22;2016353;29;21046;-66
2022/07/21 01:25:50;;;;;;;15.32;8.98;;;;;;;17.85;100.00;101548.19;2016548;29;20133;-66
2022/07/21 01:26:54;;;;;;;16.38;8.32;;;;;;;17.83;100.00;101550.06;2016747;29;20164;-66
2022/07/21 01:27:56;;;;;;;17.15;8.20;;;;;;;17.82;100.00;101550.13;2016319;29;20471;-67
2022/07/21 01:28:58;;;;;;;14.93;8.27;;;;;;;17.80;100.00;101554.72;2016486;29;20987;-66
2022/07/21 01:30:07;;;;;;;13.27;7.32;;;;;;;17.79;100.00;101556.56;2016293;29;21015;-67
2022/07/21 01:31:09;;;;;;;11.68;6.80;;;;;;;17.74;100.00;101558.59;2016869;29;20034;-68
2022/07/21 01:32:11;;;;;;;12.18;6.60;;;;;;;17.69;100.00;101550.69;2016752;29;20041;-67
2022/07/21 01:33:13;;;;;;;11.65;6.68;;;;;;;17.69;100.00;101547.06;2016783;29;20847;-68
2022/07/21 01:34:17;;;;;;;9.93;6.30;;;;;;;17.65;100.00;101537.31;2016668;29;21093;-67
2022/07/21 01:35:20;;;;;;;9.70;5.97;;;;;;;17.63;100.00;101539.22;2023338;29;20072;-68
2022/07/21 01:36:22;;;;;;;13.18;7.30;;;;;;;17.64;100.00;101540.97;2022976;29;20160;-67
2022/07/21 01:37:38;;;;;;;13.45;6.75;;;;;;;17.61;100.00;101539.28;2017825;23;20873;31
2022/07/21 01:41:30;;;;;;;12.05;7.28;;;;;;;17.60;100.00;101529.38;2001197;29;20046;-69
2022/07/21 01:42:34;;;;;;;13.55;7.13;;;;;;;17.56;100.00;101525.91;2001380;29;20039;-69
2022/07/21 01:43:36;;;;;;;10.27;6.80;;;;;;;17.56;100.00;101523.22;2001078;29;20135;-69
2022/07/21 01:44:38;;;;;;;12.43;7.70;;;;;;;17.55;100.00;101501.66;2001194;29;20098;-69
2022/07/21 01:45:40;;;;;;;15.05;7.22;;;;;;;17.53;100.00;101503.50;2000989;29;20083;-70
2022/07/21 01:46:47;;;;;;;13.10;7.50;;;;;;;17.55;100.00;101507.94;2000942;29;21241;-70
2022/07/21 01:47:50;;;;;;;11.32;7.40;;;;;;;17.55;100.00;101499.81;2001389;29;20176;-70
2022/07/21 01:48:52;;;;;;;10.70;7.50;;;;;;;17.55;100.00;101498.94;2001040;29;20059;-70
2022/07/21 01:49:54;;;;;;;15.93;7.57;;;;;;;17.54;100.00;101498.03;2000940;29;20753;-70
2022/07/21 01:50:56;;;;;;;12.57;7.68;;;;;;;17.55;100.00;101507.94;2001201;29;20138;-70
2022/07/21 01:51:58;;;;;;;11.23;8.00;;;;;;;17.60;100.00;101496.00;2001392;29;20046;-70
2022/07/21 01:53:00;;;;;;;11.02;7.35;;;;;;;17.60;100.00;101499.59;2000773;29;20085;-69
2022/07/21 01:54:09;;;;;;;11.77;7.53;;;;;;;17.58;100.00;101493.38;2008153;29;20090;-70
2022/07/21 01:55:11;;;;;;;15.90;7.82;;;;;;;17.60;100.00;101493.31;2007089;29;20125;-70
2022/07/21 01:56:13;;;;;;;11.65;7.47;;;;;;;17.60;100.00;101496.88;2001832;29;20164;-70
2022/07/21 01:57:14;;;;;;;12.02;7.78;;;;;;;17.59;100.00;101495.13;2000806;29;20264;-70
2022/07/21 01:58:16;;;;;;;10.05;6.70;;;;;;;17.56;100.00;101501.56;2001046;29;20054;-70
2022/07/21 01:59:19;;;;;;;10.45;7.35;;;;;;;17.61;100.00;101508.63;2000819;29;20038;-70
2022/07/21 02:00:23;;;;;;;13.27;7.45;;;;;;;17.58;100.00;101506.91;2001352;29;20117;-70
2022/07/21 02:01:29;;;;;;;12.80;7.55;;;;;;;17.60;100.00;101510.44;2000771;29;20050;-70
2022/07/21 02:02:33;;;;;;;10.02;7.35;;;;;;;17.60;100.00;101512.25;2001533;29;20853;-70
2022/07/21 02:03:35;;;;;;;11.65;7.88;;;;;;;17.62;100.00;101523.91;2000792;29;20055;-70
2022/07/21 02:04:37;;;;;;;12.95;7.25;;;;;;;17.61;100.00;101531.16;2001570;29;20045;-70
2022/07/21 02:05:39;;;;;;;14.30;8.20;;;;;;;17.63;100.00;101523.84;2000897;29;20054;-70
2022/07/21 02:06:44;;;;;;;11.50;7.55;;;;;;;17.62;100.00;101530.22;2001533;29;21063;-70
2022/07/21 02:07:46;;;;;;;11.30;7.65;;;;;;;17.63;100.00;101536.50;2000926;29;20161;-70
2022/07/21 02:08:48;;;;;;;10.30;7.45;;;;;;;17.63;100.00;101544.63;2002648;29;20042;-70
2022/07/21 02:09:50;;;;;;;10.55;7.53;;;;;;;17.62;100.00;101541.06;2001961;29;20042;-70
2022/07/21 02:10:52;;;;;;;9.40;7.70;;;;;;;17.63;100.00;101547.34;2001412;29;20090;-70
2022/07/21 02:11:55;;;;;;;15.35;8.18;;;;;;;17.66;100.00;101552.63;2000953;29;20165;-70
2022/07/21 02:12:59;;;;;;;9.98;8.00;;;;;;;17.65;100.00;101548.16;2007953;29;20144;-70
2022/07/21 02:14:01;;;;;;;12.75;7.70;;;;;;;17.65;100.00;101542.75;2007317;29;20122;-71
2022/07/21 02:15:04;;;;;;;12.55;7.80;;;;;;;17.66;100.00;101555.34;2001354;29;20039;-71
2022/07/21 02:16:07;;;;;;;11.75;7.68;;;;;;;17.65;100.00;101553.56;2001024;29;20683;-71
2022/07/21 02:17:09;;;;;;;12.90;8.00;;;;;;;17.71;100.00;101558.72;2008379;29;20168;-71
2022/07/21 02:18:11;;;;;;;12.68;8.43;;;;;;;17.70;100.00;101562.38;2007880;29;20054;-71
2022/07/21 02:19:13;;;;;;;13.32;8.15;;;;;;;17.70;100.00;101562.38;2001022;29;21000;-71
2022/07/21 02:20:15;;;;;;;9.73;7.47;;;;;;;17.72;100.00;101574.91;2000863;29;20231;-71
2022/07/21 02:21:17;;;;;;;15.45;8.40;;;;;;;17.70;100.00;101578.63;2001306;29;20973;-70
2022/07/21 02:22:19;;;;;;;12.40;7.68;;;;;;;17.70;100.00;101567.78;2000689;29;20155;-71
2022/07/21 02:23:24;;;;;;;12.68;8.02;;;;;;;17.69;100.00;101582.28;2001125;29;20096;-71
2022/07/21 02:24:26;;;;;;;13.30;8.43;;;;;;;17.67;100.00;101578.75;2001378;29;20130;-71
2022/07/21 02:25:28;;;;;;;15.15;9.20;;;;;;;17.68;100.00;101585.94;2001211;29;20165;-71
2022/07/21 02:26:30;;;;;;;14.70;8.48;;;;;;;17.68;100.00;101586.81;2000501;29;20039;-71
2022/07/21 02:27:31;;;;;;;14.77;8.57;;;;;;;17.68;100.00;101585.94;2001055;29;20271;-71
2022/07/21 02:28:33;;;;;;;11.32;8.35;;;;;;;17.67;100.00;101584.16;1999448;29;20063;-71
2022/07/21 02:29:35;;;;;;;11.90;9.40;;;;;;;17.69;100.00;101584.97;2000760;29;20997;-71
2022/07/21 02:30:38;;;;;;;16.45;9.68;;;;;;;17.68;100.00;101581.41;1999435;29;20913;-72
2022/07/21 02:31:40;;;;;;;16.30;8.93;;;;;;;17.65;100.00;101567.09;2001639;29;20050;-71
2022/07/21 02:32:42;;;;;;;14.02;9.23;;;;;;;17.66;100.00;101560.75;2000352;29;21055;-71
2022/07/21 02:33:46;;;;;;;11.65;8.48;;;;;;;17.65;100.00;101553.56;2002002;29;20126;-71
2022/07/21 02:34:48;;;;;;;14.88;9.50;;;;;;;17.65;100.00;101548.16;2008534;29;20054;-71
2022/07/21 02:35:50;;;;;;;15.18;9.15;;;;;;;17.66;100.00;101544.50;2008167;29;21002;-71
2022/07/21 02:36:52;;;;;;;12.95;9.38;;;;;;;17.68;100.00;101545.31;2001728;29;20046;-71
2022/07/21 02:37:54;;;;;;;10.82;9.07;;;;;;;17.65;100.00;101540.03;2001818;29;20085;-70
2022/07/21 02:38:56;;;;;;;15.85;9.50;;;;;;;17.64;100.00;101551.78;2001755;29;21074;-71
2022/07/21 02:40:00;;;;;;;15.88;9.82;;;;;;;17.64;100.00;101565.34;2009394;29;20071;-70
2022/07/21 02:41:02;;;;;;;15.43;9.63;;;;;;;17.67;100.00;101567.91;2007693;29;24172;-71
2022/07/21 02:42:04;;;;;;;13.85;10.40;;;;;;;17.68;100.00;101581.41;2000977;29;22823;-71
2022/07/21 02:43:08;;;;;;;18.10;10.18;;;;;;;17.70;100.00;101581.34;2001946;29;20223;-70
2022/07/21 02:44:10;;;;;;;13.77;10.52;;;;;;;17.69;100.00;101575.06;2001793;29;23413;-70
2022/07/21 02:45:12;;;;;;;13.82;9.70;;;;;;;17.69;100.00;101572.34;2001780;29;27239;-70
2022/07/21 02:46:15;;;;;;;15.43;10.32;;;;;;;17.68;100.00;101564.28;2002199;29;20160;-71
2022/07/21 02:47:17;;;;;;;14.25;10.15;;;;;;;17.68;100.00;101572.41;2001716;29;21417;-71
2022/07/21 02:48:19;;;;;;;13.65;9.68;;;;;;;17.66;100.00;101571.59;2002142;29;20096;-70
2022/07/21 02:49:21;;;;;;;15.85;10.13;;;;;;;17.68;100.00;101561.56;2001901;29;20059;-68
2022/07/21 02:50:26;;;;;;;16.08;10.77;;;;;;;17.67;100.00;101551.66;2002075;29;28343;-68
2022/07/21 02:51:28;;;;;;;15.00;9.93;;;;;;;17.66;100.00;101555.34;2001166;29;32873;-68
2022/07/21 02:52:30;;;;;;;13.77;10.10;;;;;;;17.65;100.00;101554.44;2002164;29;25968;-67
2022/07/21 02:53:32;;;;;;;16.20;10.70;;;;;;;17.65;100.00;101577.94;2000743;29;28678;-67
2022/07/21 02:54:33;;;;;;;14.85;10.60;;;;;;;17.64;100.00;101579.78;2002563;29;31970;-67
2022/07/21 02:55:37;;;;;;;15.50;11.02;;;;;;;17.65;100.00;101576.09;2002233;29;20157;-65
2022/07/21 02:56:39;;;;;;;17.02;11.55;;;;;;;17.65;100.00;101580.66;2002213;29;20038;-65
2022/07/21 02:57:44;;;;;;;20.20;11.95;;;;;;;17.64;100.00;101582.50;2000565;29;28116;-65
2022/07/21 02:58:45;;;;;;;17.17;11.85;;;;;;;17.65;100.00;101580.66;2000769;29;20875;-65
2022/07/21 02:59:47;;;;;;;14.95;11.45;;;;;;;17.67;100.00;101581.47;2001405;29;21042;-64
2022/07/21 03:00:54;;;;;;;15.55;10.98;;;;;;;17.66;100.00;101569.75;2000415;29;28741;-64
2022/07/21 03:01:59;;;;;;;16.20;11.00;;;;;;;17.64;100.00;101557.22;2001027;29;20912;-65
2022/07/21 03:03:03;;;;;;;19.55;11.05;;;;;;;17.62;100.00;101551.88;2002019;29;20038;-64
2022/07/21 03:04:05;;;;;;;16.65;12.00;;;;;;;17.64;100.00;101549.09;2007315;29;27540;-64
2022/07/21 03:05:08;;;;;;;19.08;13.63;;;;;;;17.63;100.00;101536.50;2008544;29;26584;-64
2022/07/21 03:06:10;;;;;;;22.45;13.27;;;;;;;17.61;100.00;101530.28;2001805;29;20034;-64
2022/07/21 03:07:14;;;;;;;19.65;12.70;;;;;;;17.56;100.00;101528.63;2001301;29;20050;-64
2022/07/21 03:08:17;;;;;;;17.55;12.40;;;;;;;17.56;100.00;101523.22;2001254;29;20565;-64
2022/07/21 03:09:22;;;;;;;16.45;12.18;;;;;;;17.55;100.00;101512.47;2003544;29;26316;-65
2022/07/21 03:10:28;;;;;;;21.40;14.48;;;;;;;17.54;100.00;101517.00;2007981;29;20130;-65
2022/07/21 03:11:30;;;;;;;20.85;13.00;;;;;;;17.49;100.00;101512.72;2007625;29;21906;-65
2022/07/21 03:12:32;;;;;;;21.88;13.77;;;;;;;17.50;100.00;101515.38;2008325;29;27082;-65
2022/07/21 03:13:34;;;;;;;21.55;13.95;;;;;;;17.50;100.00;101518.06;2008639;29;20054;-64
2022/07/21 03:14:36;;;;;;;21.55;14.30;;;;;;;17.51;100.00;101517.09;2008468;29;21322;-65
2022/07/21 03:15:39;;;;;;;20.00;13.77;;;;;;;17.47;100.00;101526.31;2001660;29;20904;-65
2022/07/21 03:16:41;;;;;;;20.27;13.35;;;;;;;17.49;100.00;101535.25;2029792;23;25944;-69
2022/07/21 03:17:43;;;;;;;19.05;13.93;;;;;;;17.51;100.00;101535.19;2024069;29;26670;-70
2022/07/21 03:18:45;;;;;;;21.65;12.85;;;;;;;17.44;100.00;101548.09;2023678;29;31770;-69
2022/07/21 03:19:46;;;;;;;24.10;12.93;;;;;;;17.45;100.00;101541.75;2024862;29;28823;-69
2022/07/21 03:20:51;;;;;;;19.80;12.95;;;;;;;17.42;100.00;101541.00;2024864;29;20507;-69
2022/07/21 03:21:53;;;;;;;16.33;12.30;;;;;;;17.42;100.00;101547.28;2025030;29;20230;-69
2022/07/21 03:22:55;;;;;;;17.52;12.10;;;;;;;17.43;100.00;101546.34;2024746;29;23425;-68
2022/07/21 03:23:57;;;;;;;17.40;13.18;;;;;;;17.44;100.00;101547.22;2025346;29;20108;-68
2022/07/21 03:24:59;;;;;;;21.77;12.68;;;;;;;17.40;100.00;101549.19;2025384;29;25202;-68
2022/07/21 03:26:01;;;;;;;21.48;13.27;;;;;;;17.41;100.00;101545.53;2010449;29;20058;-68
2022/07/21 03:27:03;;;;;;;22.92;15.43;;;;;;;17.41;100.00;101537.41;2008763;29;20885;-68
2022/07/21 03:28:08;;;;;;;21.92;13.68;;;;;;;17.42;100.00;101536.47;2009612;29;20820;-70
2022/07/21 03:29:10;;;;;;;20.17;13.30;;;;;;;17.39;100.00;101539.31;2016359;29;29139;-69
2022/07/21 03:30:14;;;;;;;19.60;14.07;;;;;;;17.41;100.00;101529.31;2024686;29;20820;-69
2022/07/21 03:31:16;;;;;;;17.63;12.77;;;;;;;17.41;100.00;101533.81;2024009;29;20077;-69
2022/07/21 03:32:17;;;;;;;19.92;13.88;;;;;;;17.43;100.00;101523.81;2024569;29;20049;-69
2022/07/21 03:33:19;;;;;;;24.13;14.98;;;;;;;17.46;100.00;101521.88;2031170;29;36100;-69
2022/07/21 03:34:21;;;;;;;23.33;15.43;;;;;;;17.51;100.00;101524.34;2024398;29;20857;-69
2022/07/21 03:35:24;;;;;;;23.38;16.08;;;;;;;17.49;100.00;101521.72;2023978;29;25600;-68
2022/07/21 03:36:28;;;;;;;23.15;14.68;;;;;;;17.48;100.00;101527.19;2024528;29;20037;-69
2022/07/21 03:37:31;;;;;;;21.85;15.45;;;;;;;17.49;100.00;101520.84;2008964;29;20936;-70
2022/07/21 03:38:35;;;;;;;19.25;14.25;;;;;;;17.49;100.00;101520.84;2009028;29;30926;-70
2022/07/21 03:39:38;;;;;;;23.40;15.50;;;;;;;17.48;100.00;101525.38;2009031;29;22238;-70
2022/07/21 03:40:40;;;;;;;21.15;14.45;;;;;;;17.46;100.00;101520.97;2002414;29;21082;-70
2022/07/21 03:41:42;;;;;;;21.63;14.05;;;;;;;17.48;100.00;101522.69;2009233;29;20042;-70
2022/07/21 03:42:44;;;;;;;19.35;13.25;;;;;;;17.48;100.00;101525.38;2008607;29;20049;-70
2022/07/21 03:43:46;;;;;;;20.15;14.25;;;;;;;17.47;100.00;101520.91;2008890;29;20050;-70
2022/07/21 03:44:48;;;;;;;24.23;14.45;;;;;;;17.48;100.00;101527.19;2024039;29;29431;-71
2022/07/21 03:45:51;;;;;;;21.52;15.70;;;;;;;17.47;100.00;101523.59;2024544;29;23973;-70
2022/07/21 03:46:53;;;;;;;24.20;16.45;;;;;;;17.49;100.00;101513.59;2025318;29;26241;-70
2022/07/21 03:47:58;;;;;;;24.15;16.40;;;;;;;17.50;100.00;101515.38;2032933;29;21082;-70
2022/07/21 03:49:00;;;;;;;23.42;16.13;;;;;;;17.50;100.00;101504.53;2031533;29;20041;-69
2022/07/21 03:50:05;;;;;;;27.17;17.08;;;;;;;17.52;100.00;101505.34;2024692;29;20085;-70
2022/07/21 03:51:08;;;;;;;26.92;16.73;;;;;;;17.50;100.00;101499.13;2024926;29;20907;-70
2022/07/21 03:52:10;;;;;;;28.48;16.38;;;;;;;17.50;100.00;101498.25;2023799;29;22400;-70
2022/07/21 03:53:14;;;;;;;22.65;16.65;;;;;;;17.50;100.00;101506.38;2024013;29;29695;-69
2022/07/21 03:54:16;;;;;;;24.08;16.30;;;;;;;17.49;100.00;101504.59;2032084;29;20040;-70
2022/07/21 03:55:18;;;;;;;23.05;17.38;;;;;;;17.48;100.00;101494.69;2031645;29;28799;-69
2022/07/21 03:56:20;;;;;;;24.42;16.98;;;;;;;17.48;100.00;101498.31;2025136;29;27917;-69
2022/07/21 03:57:24;;;;;;;24.20;16.98;;;;;;;17.47;100.00;101491.13;2024060;29;20045;-70
2022/07/21 03:58:28;;;;;;;29.00;16.67;;;;;;;17.48;100.00;101479.34;2016029;29;24770;-69
2022/07/21 03:59:30;;;;;;;26.88;17.35;;;;;;;17.49;100.00;101483.81;2024165;29;20144;-69
2022/07/21 04:00:40;;;;;;;26.30;16.88;;;;;;;17.50;100.00;101480.16;2024916;29;20247;-69
2022/07/21 04:01:42;;;;;;;25.60;16.90;;;;;;;17.49;100.00;101478.41;2024590;29;35512;-70
2022/07/21 04:02:45;;;;;;;32.38;18.02;;;;;;;17.51;100.00;101479.19;2024628;29;20124;-70
2022/07/21 04:03:49;;;;;;;25.85;17.52;;;;;;;17.53;100.00;101482.75;2024235;29;35714;-70
2022/07/21 04:04:51;;;;;;;27.08;16.70;;;;;;;17.52;100.00;101472.84;2015827;29;26665;-70
2022/07/21 04:05:53;;;;;;;25.48;16.90;;;;;;;17.52;100.00;101491.81;2009141;29;20158;-70
2022/07/21 04:06:55;;;;;;;24.85;17.92;;;;;;;17.52;100.00;101478.28;2023810;29;26965;-70
2022/07/21 04:07:59;;;;;;;25.48;16.08;;;;;;;17.52;100.00;101482.81;2024479;29;28293;-70
2022/07/21 04:09:01;;;;;;;27.85;19.00;;;;;;;17.52;100.00;101485.53;2023672;29;33099;-70
2022/07/21 04:10:03;;;;;;;25.80;19.08;;;;;;;17.52;100.00;101477.41;2024609;29;32203;-70
2022/07/21 04:11:05;;;;;;;27.95;17.25;;;;;;;17.51;100.00;101484.63;2024098;29;32506;-70
2022/07/21 04:12:08;;;;;;;27.80;17.17;;;;;;;17.52;100.00;101489.09;2023676;29;33213;-69
2022/07/21 04:13:14;;;;;;;29.00;18.25;;;;;;;17.51;100.00;101492.75;2015950;29;20309;-70
2022/07/21 04:14:16;;;;;;;26.60;17.98;;;;;;;17.51;100.00;101490.03;2024330;29;20041;-70
2022/07/21 04:15:18;;;;;;;25.20;17.95;;;;;;;17.52;100.00;101494.50;2024274;29;28219;-70
2022/07/21 04:16:20;;;;;;;26.40;20.27;;;;;;;17.54;100.00;101500.75;2023958;29;20156;-71
2022/07/21 04:17:22;;;;;;;27.52;18.95;;;;;;;17.53;100.00;101504.41;2016522;29;20834;-71
2022/07/21 04:18:24;;;;;;;28.50;18.80;;;;;;;17.53;100.00;101512.53;2008208;29;22963;-71
2022/07/21 04:19:28;;;;;;;27.02;18.42;;;;;;;17.52;100.00;101507.19;2016259;29;20053;-71
2022/07/21 04:20:31;;;;;;;28.77;19.33;;;;;;;17.53;100.00;101500.81;2024314;29;26722;-71
2022/07/21 04:21:33;;;;;;;27.70;19.23;;;;;;;17.54;100.00;101497.16;2024329;29;26010;-71
2022/07/21 04:22:36;;;;;;;32.10;20.20;;;;;;;17.52;100.00;101489.09;2031411;29;29190;-71
2022/07/21 04:23:38;;;;;;;25.58;18.75;;;;;;;17.51;100.00;101481.91;2030968;29;30982;-71
2022/07/21 04:24:40;;;;;;;28.65;18.30;;;;;;;17.53;100.00;101489.97;2024607;29;20045;-71
2022/07/21 04:25:42;;;;;;;24.17;18.23;;;;;;;17.52;100.00;101480.97;2023561;29;25715;-71
2022/07/21 04:26:44;;;;;;;28.50;21.33;;;;;;;17.54;100.00;101475.50;2024169;29;20729;-71
2022/07/21 04:27:49;;;;;;;28.25;19.08;;;;;;;17.54;100.00;101476.38;2023982;29;27997;-71
2022/07/21 04:28:51;;;;;;;29.38;20.67;;;;;;;17.54;100.00;101484.50;2024259;29;26807;-71
2022/07/21 04:29:55;;;;;;;27.45;19.15;;;;;;;17.54;100.00;101484.50;2024613;29;20037;-71
2022/07/21 04:30:56;;;;;;;27.80;20.33;;;;;;;17.55;100.00;101485.41;2024265;29;29629;-72
2022/07/21 04:32:00;;;;;;;29.60;20.38;;;;;;;17.55;100.00;101488.97;2024539;29;32906;-71
2022/07/21 04:33:03;;;;;;;27.80;18.67;;;;;;;17.56;100.00;101485.31;2024814;29;20143;-71
2022/07/21 04:34:07;;;;;;;31.33;21.45;;;;;;;17.56;100.00;101484.44;2023436;29;27327;-71
2022/07/21 04:35:13;;;;;;;30.67;19.80;;;;;;;17.55;100.00;101483.56;2016362;29;24214;-71
2022/07/21 04:36:14;;;;;;;27.58;19.15;;;;;;;17.57;100.00;101480.78;2016065;29;22338;-71
2022/07/21 04:37:17;;;;;;;32.35;21.65;;;;;;;17.56;100.00;101471.75;2008854;29;20774;-71
2022/07/21 04:38:19;;;;;;;28.48;20.17;;;;;;;17.57;100.00;101480.78;2016192;29;20056;-71
2022/07/21 04:39:20;;;;;;;29.65;19.17;;;;;;;17.60;100.00;101474.34;2023267;29;24649;-71
2022/07/21 04:40:23;;;;;;;30.33;20.63;;;;;;;17.60;100.00;101469.81;2024649;29;20140;-70
2022/07/21 04:41:25;;;;;;;27.45;19.70;;;;;;;17.62;100.00;101472.44;2024082;29;28569;-72
2022/07/21 04:42:26;;;;;;;29.45;20.77;;;;;;;17.62;100.00;101472.44;2024165;29;33630;-71
2022/07/21 04:43:28;;;;;;;24.63;18.90;;;;;;;17.65;100.00;101472.31;2023444;29;22381;-71
2022/07/21 04:44:31;;;;;;;29.77;21.45;;;;;;;17.67;100.00;101470.41;2023584;29;20045;-71
2022/07/21 04:45:35;;;;;;;30.10;20.60;;;;;;;17.69;100.00;101473.94;2024413;29;24553;-70
2022/07/21 04:46:39;;;;;;;32.88;21.27;;;;;;;17.72;100.00;101476.53;2024132;29;24488;-70
2022/07/21 04:47:55;;;;;;;32.90;22.92;;;;;;;17.74;100.00;101474.63;2023822;29;29415;-72
2022/07/21 04:48:59;;;;;;;29.90;21.58;;;;;;;17.76;100.00;101467.31;2024565;29;26386;-70